KEDJ

Bellefontaine Regional Airport

Bellefontaine, Ohio, USA
METAR KEDJ 230035Z AUTO 26003KT 10SM CLR 09/03 A3008 RMK AO1
Observed Flight Rules
Oct-23 @ 00:35 UTC (38 minutes ago) Visual Flight Rules
Wind Visibility Clouds
260° at 3 knots 10 miles
  • Clear skies
Temperatures Readings
Current 9°C / 48°F
Dewpoint 3°C / 37°F
Humidity 66%
Altimeter 30.08" Hg
Pressure 1019 hPa
Elevation 342
METAR KEDJ 230035Z AUTO 26003KT 10SM CLR 09/03 A3008 RMK AO1
Observed Flight Rules
Oct-23 @ 00:35 UTC
(38 minutes ago)
VFR
Wind Visibility
260° at 3 knots 10 miles
Clouds
  • Clear skies
Temperature Dewpoint
9°C / 48°F 3°C / 37°F
Humidity Altimeter Pressure
66% 30.08" Hg 1019 hPa